createdAt,value
2023-03-26T00:00:29.159Z,3.25
2023-03-26T00:02:32.234Z,2.92
2023-03-26T00:04:35.208Z,2.95
2023-03-26T00:06:40.707Z,2.80
2023-03-26T00:08:45.529Z,3.10
2023-03-26T00:10:48.407Z,2.97
2023-03-26T00:12:52.748Z,2.65
2023-03-26T00:14:55.591Z,2.67
2023-03-26T00:16:58.665Z,2.58
2023-03-26T00:19:02.690Z,2.50
2023-03-26T00:21:08.257Z,2.95
2023-03-26T00:25:14.448Z,2.78
2023-03-26T00:27:17.926Z,2.80
2023-03-26T00:29:28.278Z,2.80
2023-03-26T00:31:31.609Z,3.05
2023-03-26T00:33:38.813Z,2.60
2023-03-26T00:35:43.551Z,2.78
2023-03-26T00:37:46.679Z,2.67
2023-03-26T00:39:49.575Z,2.50
2023-03-26T00:41:54.766Z,2.72
2023-03-26T00:43:59.863Z,3.08
2023-03-26T00:46:04.699Z,2.92
2023-03-26T00:48:08.059Z,2.67
2023-03-26T00:50:15.812Z,2.60
2023-03-26T00:52:21.541Z,2.38
2023-03-26T00:54:24.612Z,2.30
2023-03-26T00:56:27.892Z,2.10
2023-03-26T00:58:31.255Z,2.17
2023-03-26T01:00:37.137Z,2.25
2023-03-26T01:02:41.758Z,2.35
2023-03-26T01:04:47.850Z,1.90
2023-03-26T01:06:51.201Z,2.33
2023-03-26T01:09:00.456Z,2.10
2023-03-26T01:11:07.951Z,2.58
2023-03-26T01:13:11.154Z,2.40
2023-03-26T01:15:14.231Z,2.30
2023-03-26T01:17:18.172Z,2.22
2023-03-26T01:19:30.278Z,2.20
2023-03-26T01:21:34.835Z,1.92
2023-03-26T01:23:43.331Z,2.27
2023-03-26T01:25:56.282Z,1.80
2023-03-26T01:27:59.510Z,2.03
2023-03-26T01:30:11.527Z,2.22
2023-03-26T01:32:33.249Z,2.60
2023-03-26T01:34:50.049Z,2.50
2023-03-26T01:37:00.450Z,2.65
2023-03-26T01:39:10.452Z,3.13
2023-03-26T01:41:21.969Z,2.95
2023-03-26T01:43:31.491Z,2.83
2023-03-26T01:45:38.648Z,2.95
2023-03-26T01:47:42.722Z,2.70
2023-03-26T01:49:45.769Z,2.80
2023-03-26T01:51:48.895Z,2.25
2023-03-26T01:53:53.382Z,2.25
2023-03-26T01:56:06.331Z,2.20
2023-03-26T01:58:18.253Z,2.17
2023-03-26T02:00:26.310Z,2.40
2023-03-26T02:02:39.139Z,2.30
2023-03-26T02:04:53.617Z,2.60
2023-03-26T02:07:06.052Z,2.55
2023-03-26T02:09:13.341Z,2.25
2023-03-26T02:11:16.738Z,2.15
2023-03-26T02:13:21.899Z,2.22
2023-03-26T02:15:25.052Z,2.67
2023-03-26T02:17:30.535Z,2.33
2023-03-26T02:21:36.092Z,2.45
2023-03-26T02:23:40.686Z,2.15
2023-03-26T02:25:44.166Z,2.08
2023-03-26T02:27:47.985Z,2.10
2023-03-26T02:29:52.945Z,2.15
2023-03-26T02:31:58.969Z,2.22
2023-03-26T02:34:02.296Z,2.08
2023-03-26T02:36:09.095Z,1.92
2023-03-26T02:38:15.057Z,2.22
2023-03-26T02:40:21.413Z,1.88
2023-03-26T02:42:25.330Z,2.38
2023-03-26T02:44:28.962Z,2.40
2023-03-26T02:46:36.209Z,2.65
2023-03-26T02:49:08.729Z,2.05
2023-03-26T02:51:11.689Z,2.17
2023-03-26T02:53:34.443Z,2.17
2023-03-26T02:56:01.445Z,2.47
2023-03-26T02:58:12.603Z,2.22
2023-03-26T03:00:17.467Z,2.37
2023-03-26T03:03:00.222Z,2.30
2023-03-26T03:05:08.284Z,2.17
2023-03-26T03:09:19.405Z,2.15
2023-03-26T03:11:41.725Z,1.73
2023-03-26T03:13:46.184Z,1.75
2023-03-26T03:15:53.524Z,1.73
2023-03-26T03:17:56.727Z,1.88
2023-03-26T03:20:03.528Z,1.70
2023-03-26T03:22:07.610Z,2.10
2023-03-26T03:24:14.129Z,1.90
2023-03-26T03:26:23.618Z,2.08
2023-03-26T03:28:28.495Z,1.88
2023-03-26T03:30:31.591Z,2.25
2023-03-26T03:32:58.680Z,1.80
2023-03-26T03:35:06.132Z,1.80
2023-03-26T03:37:09.291Z,2.28
2023-03-26T03:39:20.361Z,1.90
2023-03-26T03:41:23.450Z,1.83
2023-03-26T03:43:27.920Z,1.77
2023-03-26T03:45:39.292Z,1.88
2023-03-26T03:48:08.110Z,2.13
2023-03-26T03:50:22.022Z,2.10
2023-03-26T03:52:42.612Z,2.05
2023-03-26T03:54:45.613Z,1.60
2023-03-26T03:57:02.407Z,1.80
2023-03-26T03:59:09.332Z,2.10
2023-03-26T04:01:13.918Z,1.90
2023-03-26T04:03:33.442Z,2.50
2023-03-26T04:05:39.449Z,1.80
2023-03-26T04:07:42.530Z,2.35
2023-03-26T04:10:00.304Z,2.00
2023-03-26T04:12:08.379Z,2.40
2023-03-26T04:14:16.929Z,1.92
2023-03-26T04:16:32.552Z,2.63
2023-03-26T04:18:37.895Z,3.30
2023-03-26T04:20:51.169Z,3.20
2023-03-26T04:23:02.052Z,2.88
2023-03-26T04:25:05.629Z,3.08
2023-03-26T04:27:20.608Z,3.20
2023-03-26T04:29:28.210Z,3.17
2023-03-26T04:31:31.578Z,3.90
2023-03-26T04:33:36.258Z,3.13
2023-03-26T04:35:42.084Z,3.38
2023-03-26T04:37:49.010Z,2.75
2023-03-26T04:40:02.775Z,2.63
2023-03-26T04:42:14.730Z,1.92
2023-03-26T04:44:30.777Z,2.08
2023-03-26T04:46:38.072Z,2.03
2023-03-26T04:48:51.373Z,2.00
2023-03-26T04:50:54.733Z,2.20
2023-03-26T04:53:00.369Z,1.85
2023-03-26T04:55:39.810Z,1.83
2023-03-26T04:57:56.771Z,1.83
2023-03-26T05:00:20.759Z,2.00
2023-03-26T05:02:29.289Z,1.73
2023-03-26T05:04:35.026Z,1.45
2023-03-26T05:08:51.048Z,1.90
2023-03-26T05:11:11.931Z,1.45
2023-03-26T05:13:15.023Z,1.33
2023-03-26T05:15:24.327Z,1.70
2023-03-26T05:17:42.601Z,1.77
2023-03-26T05:19:53.505Z,1.42
2023-03-26T05:21:56.756Z,2.25
2023-03-26T05:24:02.412Z,1.50
2023-03-26T05:26:07.885Z,2.05
2023-03-26T05:28:11.885Z,1.75
2023-03-26T05:30:24.115Z,1.75
2023-03-26T05:32:31.845Z,2.05
2023-03-26T05:34:34.987Z,2.00
2023-03-26T05:36:39.529Z,1.88
2023-03-26T05:39:03.891Z,1.65
2023-03-26T05:41:38.913Z,1.60
2023-03-26T05:43:42.490Z,2.00
2023-03-26T05:45:52.805Z,1.63
2023-03-26T05:48:03.179Z,1.90
2023-03-26T05:50:07.917Z,1.77
2023-03-26T05:52:15.608Z,1.67
2023-03-26T05:54:48.970Z,1.70
2023-03-26T05:57:12.612Z,1.63
2023-03-26T05:59:33.933Z,1.75
2023-03-26T06:02:00.235Z,1.70
2023-03-26T06:04:13.876Z,2.10
2023-03-26T06:06:23.213Z,1.83
2023-03-26T06:08:32.534Z,1.92
2023-03-26T06:10:39.588Z,1.90
2023-03-26T06:12:42.797Z,2.10
2023-03-26T06:14:47.491Z,1.85
2023-03-26T06:16:58.846Z,2.13
2023-03-26T06:19:01.914Z,2.05
2023-03-26T06:21:23.245Z,1.77
2023-03-26T06:23:37.053Z,1.63
2023-03-26T06:25:49.286Z,1.98
2023-03-26T06:28:20.196Z,1.98
2023-03-26T06:31:00.057Z,2.30
2023-03-26T06:33:09.049Z,1.65
2023-03-26T06:35:19.230Z,2.00
2023-03-26T06:37:22.414Z,2.08
2023-03-26T06:39:30.283Z,1.92
2023-03-26T06:41:49.484Z,1.90
2023-03-26T06:44:18.533Z,2.05
2023-03-26T06:46:40.208Z,0.68
2023-03-26T06:49:01.605Z,1.80
2023-03-26T06:51:23.491Z,1.70
2023-03-26T06:53:44.889Z,1.83
2023-03-26T06:56:09.341Z,2.00
2023-03-26T06:58:32.180Z,1.95
2023-03-26T07:00:54.770Z,1.90
2023-03-26T07:03:17.612Z,2.00
2023-03-26T07:05:39.176Z,1.67
2023-03-26T07:07:57.010Z,1.98
2023-03-26T07:10:32.224Z,2.00
2023-03-26T07:12:57.691Z,2.17
2023-03-26T07:15:20.091Z,1.85
2023-03-26T07:17:41.708Z,1.80
2023-03-26T07:20:09.379Z,2.00
2023-03-26T07:22:19.362Z,1.90
2023-03-26T07:24:41.156Z,1.80
2023-03-26T07:26:55.774Z,1.80
2023-03-26T07:29:08.023Z,2.05
2023-03-26T07:31:36.422Z,1.63
2023-03-26T07:34:06.532Z,2.08
2023-03-26T07:36:26.049Z,1.90
2023-03-26T07:38:57.853Z,2.00
2023-03-26T07:41:30.855Z,2.70
2023-03-26T07:44:12.675Z,8.45
2023-03-26T07:46:32.369Z,5.05
2023-03-26T07:48:55.386Z,10.00
2023-03-26T07:51:19.731Z,5.72
2023-03-26T07:53:42.373Z,14.90
2023-03-26T07:56:03.072Z,6.60
2023-03-26T07:58:30.809Z,2.72
2023-03-26T08:00:57.458Z,3.38
2023-03-26T08:03:17.646Z,25.90
2023-03-26T08:05:28.888Z,7.47
2023-03-26T08:08:12.050Z,2.97
2023-03-26T08:10:26.891Z,11.20
2023-03-26T08:12:42.831Z,14.20
2023-03-26T08:14:53.377Z,5.78
2023-03-26T08:17:04.897Z,15.00
2023-03-26T08:19:25.778Z,13.70
2023-03-26T08:21:35.358Z,60.72
2023-03-26T08:23:50.813Z,21.42
2023-03-26T08:26:02.858Z,11.15
2023-03-26T08:28:20.047Z,6.07
2023-03-26T08:30:25.767Z,4.20
2023-03-26T08:32:29.314Z,3.80
2023-03-26T08:34:33.686Z,3.05
2023-03-26T08:36:37.291Z,3.08
2023-03-26T08:38:40.209Z,2.65
2023-03-26T08:41:20.302Z,2.00
2023-03-26T08:43:54.397Z,2.38
2023-03-26T08:46:30.640Z,2.30
2023-03-26T08:49:02.532Z,2.65
2023-03-26T08:51:52.933Z,2.30
2023-03-26T08:54:24.845Z,3.00
2023-03-26T08:56:38.871Z,2.53
2023-03-26T08:59:14.685Z,7.60
2023-03-26T09:01:56.789Z,4.03
2023-03-26T09:04:16.929Z,3.58
2023-03-26T09:06:42.366Z,3.47
2023-03-26T09:09:27.730Z,3.83
2023-03-26T09:11:59.137Z,2.50
2023-03-26T09:14:28.364Z,4.18
2023-03-26T09:17:07.857Z,2.50
2023-03-26T09:19:49.181Z,3.08
2023-03-26T09:22:27.008Z,10.00
2023-03-26T09:25:08.411Z,2.70
2023-03-26T09:27:41.769Z,2.50
2023-03-26T09:30:19.019Z,2.65
2023-03-26T09:32:41.449Z,2.47
2023-03-26T09:35:03.834Z,2.50
2023-03-26T09:37:18.361Z,2.40
2023-03-26T09:39:34.972Z,2.53
2023-03-26T09:41:44.214Z,2.90
2023-03-26T09:44:19.056Z,2.25
2023-03-26T09:46:35.259Z,2.13
2023-03-26T09:51:07.449Z,2.85
2023-03-26T09:53:26.930Z,2.20
2023-03-26T09:56:04.957Z,1.80
2023-03-26T09:58:32.750Z,2.30
2023-03-26T10:00:44.816Z,1.70
2023-03-26T10:03:08.734Z,1.98
2023-03-26T10:05:50.012Z,2.22
2023-03-26T10:08:32.085Z,2.40
2023-03-26T10:10:43.770Z,2.03
2023-03-26T10:12:52.767Z,2.10
2023-03-26T10:15:19.339Z,2.35
2023-03-26T10:17:37.867Z,3.00
2023-03-26T10:20:05.158Z,2.40
2023-03-26T10:22:23.249Z,2.63
2023-03-26T10:24:57.130Z,2.78
2023-03-26T10:27:17.476Z,2.53
2023-03-26T10:29:40.208Z,2.38
2023-03-26T10:31:46.689Z,2.80
2023-03-26T10:34:00.115Z,3.30
2023-03-26T10:36:27.190Z,4.07
2023-03-26T10:38:51.878Z,3.97
2023-03-26T10:41:07.089Z,12.35
2023-03-26T10:43:41.065Z,3.90
2023-03-26T10:46:11.031Z,4.72
2023-03-26T10:48:31.766Z,4.35
2023-03-26T10:50:52.637Z,3.45
2023-03-26T10:53:03.728Z,4.78
2023-03-26T10:55:14.333Z,3.20
2023-03-26T10:57:29.359Z,4.70
2023-03-26T10:59:32.408Z,3.83
2023-03-26T11:01:42.672Z,2.60
2023-03-26T11:03:55.116Z,2.42
2023-03-26T11:06:09.735Z,2.40
2023-03-26T11:08:31.889Z,2.90
2023-03-26T11:10:46.530Z,2.67
2023-03-26T11:12:55.761Z,2.47
2023-03-26T11:15:07.978Z,2.67
2023-03-26T11:17:40.021Z,2.65
2023-03-26T11:19:53.303Z,2.70
2023-03-26T11:22:02.123Z,2.72
2023-03-26T11:24:33.749Z,3.00
2023-03-26T11:26:51.878Z,2.42
2023-03-26T11:29:31.673Z,2.40
2023-03-26T11:31:50.230Z,2.47
2023-03-26T11:33:59.166Z,2.60
2023-03-26T11:36:08.819Z,2.17
2023-03-26T11:38:19.585Z,2.22
2023-03-26T11:40:28.174Z,2.17
2023-03-26T11:42:31.537Z,2.92
2023-03-26T11:44:39.292Z,2.50
2023-03-26T11:46:46.186Z,2.33
2023-03-26T11:48:54.085Z,3.13
2023-03-26T11:51:02.801Z,2.42
2023-03-26T11:53:13.007Z,2.03
2023-03-26T11:55:16.255Z,2.63
2023-03-26T11:57:26.677Z,3.00
2023-03-26T11:59:33.817Z,3.25
2023-03-26T12:01:53.640Z,2.90
2023-03-26T12:04:04.496Z,1.95
2023-03-26T12:06:27.291Z,1.85
2023-03-26T12:08:34.825Z,1.50
2023-03-26T12:10:43.327Z,1.77
2023-03-26T12:12:49.652Z,1.70
2023-03-26T12:14:53.050Z,1.97
2023-03-26T12:17:04.900Z,1.17
2023-03-26T12:19:21.608Z,1.73
2023-03-26T12:21:24.538Z,1.90
2023-03-26T12:23:53.248Z,2.20
2023-03-26T12:26:12.583Z,1.70
2023-03-26T12:28:20.607Z,2.30
2023-03-26T12:30:25.948Z,2.30
2023-03-26T12:32:45.257Z,2.20
2023-03-26T12:34:49.040Z,2.85
2023-03-26T12:36:55.638Z,3.60
2023-03-26T12:39:16.373Z,3.22
2023-03-26T12:44:42.290Z,3.20
2023-03-26T12:44:56.098Z,3.35
2023-03-26T12:48:01.349Z,2.47
2023-03-26T12:49:12.215Z,3.75
2023-03-26T12:51:26.795Z,3.75
2023-03-26T12:53:48.856Z,3.65
2023-03-26T12:56:00.736Z,3.65
2023-03-26T12:58:20.210Z,3.10
2023-03-26T13:00:47.285Z,3.00
2023-03-26T13:03:13.622Z,2.83
2023-03-26T13:07:51.437Z,2.55
2023-03-26T13:10:37.529Z,2.42
2023-03-26T13:12:46.431Z,2.80
2023-03-26T13:15:18.327Z,2.30
2023-03-26T13:17:29.642Z,2.80
2023-03-26T13:19:39.661Z,2.50
2023-03-26T13:21:53.911Z,2.60
2023-03-26T13:24:05.213Z,3.35
2023-03-26T13:26:19.341Z,2.80
2023-03-26T13:28:35.370Z,2.58
2023-03-26T13:30:43.663Z,2.38
2023-03-26T13:33:03.160Z,2.70
2023-03-26T13:35:24.645Z,3.03
2023-03-26T13:37:36.894Z,3.40
2023-03-26T13:39:52.620Z,3.50
2023-03-26T13:42:16.668Z,4.22
2023-03-26T13:44:32.620Z,4.53
2023-03-26T13:46:38.923Z,6.13
2023-03-26T13:48:51.210Z,7.35
2023-03-26T13:51:00.910Z,5.30
2023-03-26T13:53:06.970Z,5.22
2023-03-26T13:55:22.631Z,5.18
2023-03-26T13:57:32.103Z,4.20
2023-03-26T13:59:41.891Z,4.22
2023-03-26T14:01:51.326Z,4.70
2023-03-26T14:04:02.593Z,4.22
2023-03-26T14:06:11.784Z,5.13
2023-03-26T14:08:22.011Z,5.57
2023-03-26T14:10:31.015Z,5.25
2023-03-26T14:12:49.380Z,6.00
2023-03-26T14:14:58.687Z,8.30
2023-03-26T14:17:07.007Z,6.50
2023-03-26T14:19:32.407Z,6.93
2023-03-26T14:21:51.835Z,5.43
2023-03-26T14:24:19.557Z,3.67
2023-03-26T14:26:46.665Z,3.15
2023-03-26T14:29:25.765Z,2.55
2023-03-26T14:31:34.520Z,2.80
2023-03-26T14:34:00.244Z,5.00
2023-03-26T14:36:15.016Z,7.57
2023-03-26T14:38:57.248Z,14.32
2023-03-26T14:41:10.928Z,10.13
2023-03-26T14:43:30.587Z,9.75
2023-03-26T14:46:06.218Z,9.18
2023-03-26T14:48:54.613Z,6.53
2023-03-26T14:51:12.608Z,4.90
2023-03-26T14:53:26.651Z,4.88
2023-03-26T14:56:00.138Z,4.78
2023-03-26T14:58:34.371Z,4.43
2023-03-26T15:01:07.294Z,4.15
2023-03-26T15:03:52.852Z,4.68
2023-03-26T15:06:26.822Z,3.92
2023-03-26T15:09:33.830Z,3.95
2023-03-26T15:11:46.372Z,4.90
2023-03-26T15:14:30.243Z,5.18
2023-03-26T15:17:14.012Z,6.07
2023-03-26T15:19:53.741Z,3.60
2023-03-26T15:22:31.570Z,2.80
2023-03-26T15:25:10.769Z,3.40
2023-03-26T15:27:46.470Z,5.22
2023-03-26T15:30:27.077Z,5.25
2023-03-26T15:32:58.560Z,2.35
2023-03-26T15:35:31.111Z,2.60
2023-03-26T15:38:31.377Z,2.75
2023-03-26T15:40:45.971Z,2.08
2023-03-26T15:43:01.736Z,2.35
2023-03-26T15:45:30.725Z,2.70
2023-03-26T15:48:02.251Z,2.10
2023-03-26T15:50:19.448Z,3.00
2023-03-26T15:52:32.688Z,2.90
2023-03-26T15:54:50.129Z,3.28
2023-03-26T15:57:07.570Z,3.38
2023-03-26T15:59:27.089Z,3.40
2023-03-26T16:01:46.466Z,3.53
2023-03-26T16:03:58.768Z,2.83
2023-03-26T16:06:28.548Z,2.75
2023-03-26T16:08:40.219Z,3.20
2023-03-26T16:10:51.687Z,3.13
2023-03-26T16:13:15.182Z,3.00
2023-03-26T16:15:27.869Z,2.75
2023-03-26T16:18:12.657Z,3.33
2023-03-26T16:20:31.498Z,3.25
2023-03-26T16:22:45.326Z,3.63
2023-03-26T16:25:28.910Z,3.60
2023-03-26T16:27:35.568Z,3.03
2023-03-26T16:30:14.970Z,3.00
2023-03-26T16:32:31.675Z,3.00
2023-03-26T16:34:51.010Z,2.90
2023-03-26T16:36:54.616Z,2.85
2023-03-26T16:39:18.051Z,2.83
2023-03-26T16:41:25.048Z,3.03
2023-03-26T16:43:51.688Z,3.03
2023-03-26T16:48:15.009Z,3.70
2023-03-26T16:50:29.354Z,3.58
2023-03-26T16:52:43.149Z,29.95
2023-03-26T16:54:51.768Z,17.67
2023-03-26T16:57:02.203Z,68.75
2023-03-26T16:59:27.074Z,10.75
2023-03-26T17:01:45.669Z,38.55
2023-03-26T17:03:57.071Z,20.40
2023-03-26T17:06:06.573Z,26.83
2023-03-26T17:08:16.920Z,8.38
2023-03-26T17:10:31.271Z,8.45
2023-03-26T17:12:40.863Z,5.20
2023-03-26T17:14:59.845Z,6.85
2023-03-26T17:17:23.798Z,5.13
2023-03-26T17:19:33.819Z,4.47
2023-03-26T17:21:47.511Z,3.85
2023-03-26T17:24:02.086Z,6.45
2023-03-26T17:26:16.685Z,4.68
2023-03-26T17:28:35.654Z,3.90
2023-03-26T17:31:06.925Z,3.92
2023-03-26T17:33:21.846Z,3.15
2023-03-26T17:35:47.170Z,3.47
2023-03-26T17:37:50.765Z,4.00
2023-03-26T17:40:20.972Z,4.47
2023-03-26T17:42:27.785Z,4.13
2023-03-26T17:44:49.490Z,4.30
2023-03-26T17:46:58.239Z,6.97
2023-03-26T17:49:06.257Z,5.93
2023-03-26T17:51:27.905Z,6.10
2023-03-26T17:53:33.331Z,47.20
2023-03-26T17:55:39.120Z,26.27
2023-03-26T17:57:46.098Z,13.45
2023-03-26T17:59:51.529Z,38.88
2023-03-26T18:01:59.949Z,34.38
2023-03-26T18:04:04.809Z,45.17
2023-03-26T18:06:11.292Z,65.63
2023-03-26T18:08:32.721Z,51.28
2023-03-26T18:11:06.309Z,21.23
2023-03-26T18:13:23.733Z,11.35
2023-03-26T18:15:34.572Z,9.05
2023-03-26T18:17:46.320Z,10.35
2023-03-26T18:19:52.067Z,8.73
2023-03-26T18:21:58.270Z,7.72
2023-03-26T18:24:03.085Z,6.65
2023-03-26T18:26:16.170Z,8.27
2023-03-26T18:28:19.001Z,6.80
2023-03-26T18:30:23.851Z,8.90
2023-03-26T18:32:31.307Z,7.78
2023-03-26T18:34:40.368Z,8.95
2023-03-26T18:36:43.371Z,8.63
2023-03-26T18:38:47.086Z,39.67
2023-03-26T18:40:54.255Z,79.82
2023-03-26T18:42:59.646Z,18.13
2023-03-26T18:45:07.526Z,16.52
2023-03-26T18:47:12.573Z,12.50
2023-03-26T18:49:17.373Z,14.25
2023-03-26T18:51:23.471Z,8.85
2023-03-26T18:53:30.126Z,7.68
2023-03-26T18:55:39.751Z,7.80
2023-03-26T18:57:43.648Z,12.27
2023-03-26T18:59:50.646Z,18.42
2023-03-26T19:01:55.892Z,25.50
2023-03-26T19:04:00.237Z,40.92
2023-03-26T19:06:08.526Z,30.27
2023-03-26T19:08:13.573Z,160.50
2023-03-26T19:10:22.470Z,329.73
2023-03-26T19:12:31.807Z,198.52
2023-03-26T19:14:51.369Z,113.68
2023-03-26T19:16:58.054Z,10.98
2023-03-26T19:19:02.815Z,12.45
2023-03-26T19:21:06.014Z,11.02
2023-03-26T19:23:15.295Z,33.17
2023-03-26T19:25:22.147Z,117.38
2023-03-26T19:27:25.535Z,87.82
2023-03-26T19:29:31.921Z,96.80
2023-03-26T19:31:37.026Z,60.42
2023-03-26T19:33:42.446Z,67.47
2023-03-26T19:35:46.645Z,91.00
2023-03-26T19:37:51.607Z,68.25
2023-03-26T19:40:07.010Z,7.68
2023-03-26T19:42:14.855Z,4.35
2023-03-26T19:44:21.603Z,55.60
2023-03-26T19:46:25.995Z,58.70
2023-03-26T19:48:45.928Z,64.63
2023-03-26T19:51:05.085Z,63.10
2023-03-26T19:53:19.206Z,23.42
2023-03-26T19:55:27.472Z,8.63
2023-03-26T19:57:32.860Z,12.95
2023-03-26T19:59:35.853Z,40.72
2023-03-26T20:01:38.760Z,19.95
2023-03-26T20:03:43.272Z,16.10
2023-03-26T20:05:46.303Z,45.33
2023-03-26T20:07:50.539Z,32.90
2023-03-26T20:09:53.772Z,19.60
2023-03-26T20:11:58.373Z,12.98
2023-03-26T20:14:01.906Z,5.22
2023-03-26T20:16:10.977Z,5.07
2023-03-26T20:18:14.171Z,3.95
2023-03-26T20:20:18.017Z,4.03
2023-03-26T20:22:20.978Z,4.63
2023-03-26T20:24:26.306Z,6.40
2023-03-26T20:26:29.147Z,6.50
2023-03-26T20:28:42.382Z,8.70
2023-03-26T20:30:54.890Z,14.18
2023-03-26T20:33:11.793Z,11.90
2023-03-26T20:35:20.728Z,10.88
2023-03-26T20:37:39.347Z,10.82
2023-03-26T20:39:42.469Z,9.43
2023-03-26T20:41:47.926Z,9.32
2023-03-26T20:43:55.367Z,8.73
2023-03-26T20:45:58.929Z,8.68
2023-03-26T20:48:03.108Z,8.15
2023-03-26T20:50:07.089Z,7.43
2023-03-26T20:52:14.007Z,7.28
2023-03-26T20:54:19.304Z,8.63
2023-03-26T20:56:22.375Z,8.60
2023-03-26T20:58:31.318Z,8.98
2023-03-26T21:00:37.437Z,8.90
2023-03-26T21:02:42.018Z,10.25
2023-03-26T21:04:47.631Z,10.70
2023-03-26T21:06:53.238Z,9.00
2023-03-26T21:08:58.873Z,9.82
2023-03-26T21:11:03.393Z,9.70
2023-03-26T21:13:11.970Z,9.10
2023-03-26T21:15:23.147Z,8.77
2023-03-26T21:17:29.182Z,9.18
2023-03-26T21:19:33.326Z,9.55
2023-03-26T21:21:48.148Z,9.63
2023-03-26T21:23:59.552Z,8.77
2023-03-26T21:26:07.485Z,9.60
2023-03-26T21:28:39.832Z,9.30
2023-03-26T21:30:47.312Z,9.00
2023-03-26T21:32:52.360Z,10.05
2023-03-26T21:34:59.239Z,8.43
2023-03-26T21:37:03.150Z,10.63
2023-03-26T21:39:06.918Z,11.20
2023-03-26T21:41:26.450Z,12.70
2023-03-26T21:43:29.511Z,10.82
2023-03-26T21:45:33.493Z,11.85
2023-03-26T21:47:37.113Z,11.73
2023-03-26T21:49:42.350Z,9.60
2023-03-26T21:51:46.432Z,8.68
2023-03-26T21:53:49.912Z,7.22
2023-03-26T21:56:02.432Z,7.85
2023-03-26T21:58:17.066Z,8.05
2023-03-26T22:00:33.572Z,8.68
2023-03-26T22:02:59.978Z,8.07
2023-03-26T22:05:13.427Z,7.30
2023-03-26T22:07:19.677Z,7.32
2023-03-26T22:09:35.515Z,7.78
2023-03-26T22:11:39.175Z,8.13
2023-03-26T22:13:42.474Z,7.88
2023-03-26T22:15:46.532Z,7.13
2023-03-26T22:17:54.268Z,7.40
2023-03-26T22:19:57.354Z,7.15
2023-03-26T22:22:02.042Z,7.13
2023-03-26T22:24:07.398Z,6.43
2023-03-26T22:26:10.365Z,7.00
2023-03-26T22:28:14.079Z,6.95
2023-03-26T22:30:17.802Z,6.93
2023-03-26T22:32:20.677Z,6.60
2023-03-26T22:34:23.956Z,5.88
2023-03-26T22:36:27.965Z,6.75
2023-03-26T22:38:32.467Z,6.72
2023-03-26T22:40:35.476Z,6.82
2023-03-26T22:42:38.360Z,5.55
2023-03-26T22:44:41.581Z,6.30
2023-03-26T22:46:46.399Z,6.30
2023-03-26T22:48:49.700Z,6.28
2023-03-26T22:51:00.206Z,6.68
2023-03-26T22:53:03.094Z,6.25
2023-03-26T22:55:09.155Z,6.60
2023-03-26T22:57:12.376Z,5.68
2023-03-26T22:59:15.956Z,5.70
2023-03-26T23:01:22.105Z,5.35
2023-03-26T23:03:35.263Z,5.35
2023-03-26T23:05:38.996Z,5.15
2023-03-26T23:07:42.843Z,5.57
2023-03-26T23:09:46.074Z,5.28
2023-03-26T23:11:50.866Z,5.43
2023-03-26T23:13:53.756Z,4.97
2023-03-26T23:15:57.516Z,5.00
2023-03-26T23:18:00.611Z,5.13
2023-03-26T23:20:06.478Z,4.72
2023-03-26T23:22:09.366Z,4.78
2023-03-26T23:24:12.325Z,4.47
2023-03-26T23:26:15.836Z,4.80
2023-03-26T23:28:20.716Z,4.82
2023-03-26T23:30:25.328Z,4.93
2023-03-26T23:32:28.811Z,5.78
2023-03-26T23:34:32.401Z,4.90
2023-03-26T23:36:35.477Z,5.68
2023-03-26T23:38:44.263Z,5.38
2023-03-26T23:40:57.484Z,5.82
2023-03-26T23:43:01.001Z,5.90
2023-03-26T23:45:06.565Z,6.25
2023-03-26T23:49:15.202Z,5.30
2023-03-26T23:51:20.399Z,4.95
2023-03-26T23:53:25.196Z,5.10
2023-03-26T23:55:28.159Z,5.53
2023-03-26T23:57:31.114Z,6.47
2023-03-26T23:59:35.802Z,6.53
